Time;durP1;ratioP1;P1;durP2;ratioP2;P2;SDS_P1;SDS_P2;PMS_P1;PMS_P2;Temp;Humidity;BMP_temperature;BMP_pressure;BME280_temperature;BME280_humidity;BME280_pressure;Samples;Min_cycle;Max_cycle;Signal;HPM_P1;HPM_P2
2024/03/21 00:00:20;;;;;;;13.57;7.30;;;;;;;;;;5832199;28;20068;-72
2024/03/21 00:03:10;;;;;;;14.77;8.00;;;;;;;;;;5848505;28;20042;-72
2024/03/21 00:06:00;;;;;;;13.82;7.05;;;;;;;;;;5848702;28;20045;-72
2024/03/21 00:08:50;;;;;;;13.75;7.25;;;;;;;;;;5888022;28;20717;-72
2024/03/21 00:11:39;;;;;;;16.88;8.07;;;;;;;;;;5887748;28;20124;-72
2024/03/21 00:14:29;;;;;;;15.07;8.32;;;;;;;;;;5871065;28;20151;-72
2024/03/21 00:17:19;;;;;;;14.10;7.05;;;;;;;;;;5887382;28;20116;-72
2024/03/21 00:20:10;;;;;;;14.68;8.50;;;;;;;;;;5887512;28;20052;-72
2024/03/21 00:23:00;;;;;;;13.38;6.40;;;;;;;;;;5871455;28;20037;-72
2024/03/21 00:25:50;;;;;;;10.77;6.38;;;;;;;;;;5879160;28;20047;-72
2024/03/21 00:28:41;;;;;;;16.73;6.53;;;;;;;;;;5887251;28;20106;-72
2024/03/21 00:31:31;;;;;;;16.95;7.10;;;;;;;;;;5887410;28;20041;-72
2024/03/21 00:34:21;;;;;;;8.20;6.45;;;;;;;;;;5870466;28;20049;-72
2024/03/21 00:37:11;;;;;;;16.88;6.35;;;;;;;;;;5887012;28;20095;-72
2024/03/21 00:40:01;;;;;;;17.73;6.95;;;;;;;;;;5886964;28;20069;-72
2024/03/21 00:42:51;;;;;;;13.85;6.55;;;;;;;;;;5887446;28;20041;-72
2024/03/21 00:45:40;;;;;;;14.60;6.15;;;;;;;;;;5886850;28;20052;-72
2024/03/21 00:48:30;;;;;;;13.10;8.32;;;;;;;;;;5886953;28;20407;-72
2024/03/21 00:51:20;;;;;;;17.92;9.70;;;;;;;;;;5886844;28;20052;-72
2024/03/21 00:54:10;;;;;;;10.00;6.20;;;;;;;;;;5886820;28;20080;-72
2024/03/21 00:56:59;;;;;;;11.82;5.85;;;;;;;;;;5887259;28;20049;-72
2024/03/21 00:59:49;;;;;;;13.23;6.30;;;;;;;;;;5886639;28;20045;-72
2024/03/21 01:02:39;;;;;;;19.17;8.90;;;;;;;;;;5823141;28;20149;-72
2024/03/21 01:05:29;;;;;;;15.23;8.70;;;;;;;;;;5825940;28;20087;-72
2024/03/21 01:08:19;;;;;;;18.67;7.68;;;;;;;;;;5863140;28;20526;-72
2024/03/21 01:11:09;;;;;;;13.48;6.35;;;;;;;;;;5863402;28;20072;-72
2024/03/21 01:13:59;;;;;;;16.42;7.70;;;;;;;;;;5847392;28;20111;-72
2024/03/21 01:16:49;;;;;;;18.48;7.75;;;;;;;;;;5863337;28;20041;-72
2024/03/21 01:19:39;;;;;;;13.77;5.85;;;;;;;;;;5863122;28;20055;-72
2024/03/21 01:22:28;;;;;;;16.30;8.77;;;;;;;;;;5846334;28;20049;-72
2024/03/21 01:25:18;;;;;;;12.98;6.03;;;;;;;;;;5863195;28;20077;-72
2024/03/21 01:28:08;;;;;;;19.75;8.35;;;;;;;;;;5862966;28;20057;-72
2024/03/21 01:31:14;;;;;;;15.00;7.53;;;;;;;;;;5863734;28;20045;-72
2024/03/21 01:34:05;;;;;;;18.08;9.40;;;;;;;;;;5873056;28;20495;-72
2024/03/21 01:36:57;;;;;;;12.80;7.53;;;;;;;;;;5863315;28;20099;-72
2024/03/21 01:39:46;;;;;;;20.65;7.72;;;;;;;;;;5862720;28;20045;-72
2024/03/21 01:42:37;;;;;;;12.90;8.18;;;;;;;;;;5845513;28;20073;-72
2024/03/21 01:45:27;;;;;;;21.90;8.30;;;;;;;;;;5862766;28;20052;-72
2024/03/21 01:48:17;;;;;;;15.80;8.05;;;;;;;;;;5862258;28;20053;-72
2024/03/21 01:51:07;;;;;;;15.65;9.25;;;;;;;;;;5862387;28;20049;-72
2024/03/21 01:53:57;;;;;;;10.25;7.10;;;;;;;;;;5862965;28;20446;-72
2024/03/21 01:56:47;;;;;;;18.73;8.20;;;;;;;;;;5845677;28;20049;-72
2024/03/21 01:59:37;;;;;;;12.18;6.78;;;;;;;;;;5862200;28;20068;-72
2024/03/21 02:02:27;;;;;;;14.20;8.02;;;;;;;;;;5862078;28;20073;-72
2024/03/21 02:05:17;;;;;;;17.17;8.35;;;;;;;;;;5862216;28;20045;-72
2024/03/21 02:08:08;;;;;;;16.75;9.63;;;;;;;;;;5862226;28;20488;-72
2024/03/21 02:10:57;;;;;;;12.63;6.90;;;;;;;;;;5829992;28;20053;-72
2024/03/21 02:13:48;;;;;;;16.65;8.75;;;;;;;;;;5861887;28;20056;-72
2024/03/21 02:16:38;;;;;;;18.80;7.65;;;;;;;;;;5861691;28;20418;-72
2024/03/21 02:19:29;;;;;;;15.52;7.97;;;;;;;;;;5861832;28;20045;-72
2024/03/21 02:22:37;;;;;;;18.45;9.07;;;;;;;;;;5861429;28;20098;-72
2024/03/21 02:25:27;;;;;;;23.70;8.85;;;;;;;;;;5861705;28;20056;-72
2024/03/21 02:28:17;;;;;;;14.35;7.25;;;;;;;;;;5861601;28;20046;-72
2024/03/21 02:31:07;;;;;;;23.95;9.07;;;;;;;;;;5861524;28;20058;-72
2024/03/21 02:33:57;;;;;;;12.77;7.57;;;;;;;;;;5862034;28;20123;-72
2024/03/21 02:36:47;;;;;;;15.90;7.95;;;;;;;;;;5845081;28;20049;-72
2024/03/21 02:39:36;;;;;;;13.98;7.68;;;;;;;;;;5845258;28;20049;-72
2024/03/21 02:42:26;;;;;;;17.38;7.97;;;;;;;;;;5844913;28;20048;-72
2024/03/21 02:45:16;;;;;;;19.75;8.57;;;;;;;;;;5861369;28;20454;-72
2024/03/21 02:48:06;;;;;;;13.70;9.27;;;;;;;;;;5861572;28;20045;-72
2024/03/21 02:50:55;;;;;;;12.23;9.80;;;;;;;;;;5861726;28;20049;-72
2024/03/21 02:53:45;;;;;;;15.60;8.85;;;;;;;;;;5860913;28;20498;-72
2024/03/21 02:56:35;;;;;;;10.68;6.45;;;;;;;;;;5823386;28;20049;-72
2024/03/21 02:59:25;;;;;;;15.35;6.95;;;;;;;;;;5838415;28;20046;-72
2024/03/21 03:02:17;;;;;;;17.33;8.18;;;;;;;;;;5838089;28;20115;-72
2024/03/21 03:05:10;;;;;;;15.02;7.50;;;;;;;;;;5837933;28;20046;-72
2024/03/21 03:08:00;;;;;;;11.25;6.55;;;;;;;;;;5838688;28;20076;-73
2024/03/21 03:10:49;;;;;;;14.23;8.88;;;;;;;;;;5837569;28;20129;-72
2024/03/21 03:13:39;;;;;;;21.55;8.85;;;;;;;;;;5837794;28;20424;-72
2024/03/21 03:16:29;;;;;;;16.27;6.80;;;;;;;;;;5841699;28;20052;-72
2024/03/21 03:19:18;;;;;;;12.50;8.18;;;;;;;;;;5860537;28;20057;-72
2024/03/21 03:22:08;;;;;;;13.02;7.38;;;;;;;;;;5860700;28;20075;-72
2024/03/21 03:24:58;;;;;;;19.45;9.60;;;;;;;;;;5844692;28;20623;-72
2024/03/21 03:27:49;;;;;;;17.17;7.85;;;;;;;;;;5860530;28;20045;-73
2024/03/21 03:30:38;;;;;;;15.48;8.93;;;;;;;;;;5860635;28;20050;-73
2024/03/21 03:36:37;;;;;;;18.60;8.32;;;;;;;;;;5860485;28;20045;-73
2024/03/21 03:39:26;;;;;;;20.70;9.75;;;;;;;;;;5860683;28;20137;-72
2024/03/21 03:42:17;;;;;;;21.88;7.43;;;;;;;;;;5860221;28;20080;-73
2024/03/21 03:45:07;;;;;;;11.18;7.75;;;;;;;;;;5860237;28;20053;-73
2024/03/21 03:47:56;;;;;;;15.82;7.85;;;;;;;;;;5828806;28;20058;-72
2024/03/21 03:50:46;;;;;;;20.95;9.48;;;;;;;;;;5860151;28;20050;-73
2024/03/21 03:53:36;;;;;;;14.02;9.15;;;;;;;;;;5860254;28;20041;-73
2024/03/21 03:56:26;;;;;;;14.35;7.35;;;;;;;;;;5827741;28;20045;-73
2024/03/21 03:59:16;;;;;;;16.88;7.32;;;;;;;;;;5843775;28;20456;-73
2024/03/21 04:02:05;;;;;;;16.90;8.43;;;;;;;;;;5844204;28;20103;-73
2024/03/21 04:04:55;;;;;;;23.30;9.32;;;;;;;;;;5877023;28;20456;-73
2024/03/21 04:07:45;;;;;;;13.57;7.88;;;;;;;;;;5864057;28;20436;-73
2024/03/21 04:10:35;;;;;;;11.27;7.72;;;;;;;;;;5864371;28;20045;-73
2024/03/21 04:13:25;;;;;;;15.10;8.13;;;;;;;;;;5864478;28;20045;-73
2024/03/21 04:16:17;;;;;;;17.83;8.05;;;;;;;;;;5864299;28;20045;-73
2024/03/21 04:19:07;;;;;;;16.35;7.93;;;;;;;;;;5864258;28;20057;-73
2024/03/21 04:21:56;;;;;;;12.52;7.82;;;;;;;;;;5848390;28;20053;-73
2024/03/21 04:24:47;;;;;;;24.55;10.93;;;;;;;;;;5864137;28;20046;-73
2024/03/21 04:27:37;;;;;;;13.80;8.88;;;;;;;;;;5847902;28;20049;-73
2024/03/21 04:30:26;;;;;;;19.48;8.55;;;;;;;;;;5864193;28;20045;-73
2024/03/21 04:33:16;;;;;;;21.42;9.20;;;;;;;;;;5829239;28;20182;-73
2024/03/21 04:36:07;;;;;;;13.82;9.35;;;;;;;;;;5824688;28;20054;-73
2024/03/21 04:38:57;;;;;;;17.48;8.18;;;;;;;;;;5841674;28;20049;-73
2024/03/21 04:41:47;;;;;;;17.02;9.05;;;;;;;;;;5840898;28;20046;-73
2024/03/21 04:44:36;;;;;;;12.73;8.02;;;;;;;;;;5840704;28;20037;-73
2024/03/21 04:47:26;;;;;;;23.60;10.30;;;;;;;;;;5840878;28;20531;-73
2024/03/21 04:50:16;;;;;;;14.32;9.27;;;;;;;;;;5840922;28;20053;-73
2024/03/21 04:53:06;;;;;;;25.65;8.95;;;;;;;;;;5840922;28;20487;-73
2024/03/21 04:55:57;;;;;;;16.27;9.48;;;;;;;;;;5840522;28;20054;-73
2024/03/21 04:58:48;;;;;;;18.48;8.93;;;;;;;;;;5863515;28;20053;-73
2024/03/21 05:01:38;;;;;;;23.70;10.55;;;;;;;;;;5863342;28;20048;-73
2024/03/21 05:04:27;;;;;;;17.33;8.95;;;;;;;;;;5847137;28;20397;-73
2024/03/21 05:07:17;;;;;;;24.70;9.25;;;;;;;;;;5846899;28;20064;-73
2024/03/21 05:10:07;;;;;;;17.33;9.70;;;;;;;;;;5863328;28;20050;-73
2024/03/21 05:12:57;;;;;;;20.88;10.82;;;;;;;;;;5864038;28;20433;-73
2024/03/21 05:15:51;;;;;;;17.30;8.80;;;;;;;;;;5863163;28;20416;-73
2024/03/21 05:18:41;;;;;;;14.57;10.00;;;;;;;;;;5861914;28;20045;-73
2024/03/21 05:21:31;;;;;;;12.98;8.82;;;;;;;;;;5863122;28;20056;-73
2024/03/21 05:24:20;;;;;;;28.00;9.43;;;;;;;;;;5862981;28;20590;-73
2024/03/21 05:27:15;;;;;;;13.65;7.82;;;;;;;;;;5862768;28;20156;-73
2024/03/21 05:30:05;;;;;;;15.38;8.18;;;;;;;;;;5862873;28;20369;-73
2024/03/21 05:32:56;;;;;;;11.75;8.07;;;;;;;;;;5847750;28;20404;-73
2024/03/21 05:35:45;;;;;;;13.30;8.77;;;;;;;;;;5845823;28;20106;-73
2024/03/21 05:38:35;;;;;;;21.60;9.38;;;;;;;;;;5846265;28;20054;-73
2024/03/21 05:41:25;;;;;;;22.85;7.88;;;;;;;;;;5862666;28;20111;-73
2024/03/21 05:44:15;;;;;;;18.33;10.30;;;;;;;;;;5862572;28;20049;-72
2024/03/21 05:47:20;;;;;;;21.92;10.68;;;;;;;;;;5846410;28;20077;-72
2024/03/21 05:50:10;;;;;;;25.10;10.43;;;;;;;;;;5862504;28;20049;-72
2024/03/21 05:53:00;;;;;;;23.83;10.05;;;;;;;;;;5863230;28;20046;-75
2024/03/21 05:56:04;;;;;;;20.40;12.70;;;;;;;;;;5838006;28;20041;-75
2024/03/21 05:58:54;;;;;;;23.17;11.23;;;;;;;;;;5871879;28;20052;-74
2024/03/21 06:01:44;;;;;;;17.05;9.23;;;;;;;;;;5862321;28;20049;-75
2024/03/21 06:04:35;;;;;;;15.98;9.32;;;;;;;;;;5845898;28;20091;-75
2024/03/21 06:07:25;;;;;;;15.10;11.50;;;;;;;;;;5862134;28;20064;-74
2024/03/21 06:10:14;;;;;;;14.10;10.60;;;;;;;;;;5829465;28;20046;-74
2024/03/21 06:13:04;;;;;;;14.70;10.88;;;;;;;;;;5861914;28;20042;-74
2024/03/21 06:15:54;;;;;;;15.10;9.27;;;;;;;;;;5846455;28;20061;-72
2024/03/21 06:18:44;;;;;;;18.80;9.45;;;;;;;;;;5863475;28;20408;-74
2024/03/21 06:21:33;;;;;;;15.10;7.45;;;;;;;;;;5862727;28;20045;-74
2024/03/21 06:24:23;;;;;;;8.63;6.78;;;;;;;;;;5862132;28;20503;-74
2024/03/21 06:27:13;;;;;;;12.73;6.85;;;;;;;;;;5861895;28;20053;-74
2024/03/21 06:30:03;;;;;;;22.88;8.68;;;;;;;;;;5861912;28;20056;-74
2024/03/21 06:32:53;;;;;;;16.23;9.23;;;;;;;;;;5862657;28;20046;-74
2024/03/21 06:35:43;;;;;;;11.98;9.25;;;;;;;;;;5861518;28;20049;-74
2024/03/21 06:38:33;;;;;;;11.40;8.52;;;;;;;;;;5861483;28;20069;-74
2024/03/21 06:41:23;;;;;;;13.85;8.95;;;;;;;;;;5861654;28;20045;-74
2024/03/21 06:44:12;;;;;;;13.65;10.80;;;;;;;;;;5861670;28;20052;-72
2024/03/21 06:47:04;;;;;;;22.88;11.05;;;;;;;;;;5861567;28;20515;-71
2024/03/21 06:49:56;;;;;;;18.42;12.48;;;;;;;;;;5861758;28;20052;-72
2024/03/21 06:52:49;;;;;;;19.92;11.93;;;;;;;;;;5861536;28;20041;-72
2024/03/21 06:55:39;;;;;;;21.65;13.57;;;;;;;;;;5861183;28;20056;-72
2024/03/21 06:58:30;;;;;;;18.13;12.85;;;;;;;;;;5844888;28;20403;-72
2024/03/21 07:01:19;;;;;;;23.05;13.90;;;;;;;;;;5844713;28;20102;-72
2024/03/21 07:04:09;;;;;;;20.63;14.75;;;;;;;;;;5860995;28;20041;-72
2024/03/21 07:06:59;;;;;;;24.05;13.82;;;;;;;;;;5861637;28;20053;-72
2024/03/21 07:09:49;;;;;;;23.73;14.07;;;;;;;;;;5861124;28;20053;-72
2024/03/21 07:12:39;;;;;;;20.90;12.38;;;;;;;;;;5844666;28;20499;-72
2024/03/21 07:15:28;;;;;;;26.08;14.10;;;;;;;;;;5828723;28;20050;-72
2024/03/21 07:18:21;;;;;;;28.17;14.48;;;;;;;;;;5846443;28;20072;-71
2024/03/21 07:21:19;;;;;;;19.08;13.90;;;;;;;;;;5861511;28;20053;-72
2024/03/21 07:24:09;;;;;;;23.67;13.38;;;;;;;;;;5854178;28;20042;-72
2024/03/21 07:26:59;;;;;;;24.15;13.73;;;;;;;;;;5862354;28;20048;-71
2024/03/21 07:29:49;;;;;;;25.02;13.85;;;;;;;;;;5861144;28;20057;-72
2024/03/21 07:32:39;;;;;;;18.65;12.73;;;;;;;;;;5844900;28;20060;-72
2024/03/21 07:35:29;;;;;;;35.95;14.10;;;;;;;;;;5844980;28;20050;-72
2024/03/21 07:38:19;;;;;;;24.75;14.25;;;;;;;;;;5844669;28;20049;-72
2024/03/21 07:41:09;;;;;;;32.75;14.90;;;;;;;;;;5830014;28;20152;-72
2024/03/21 07:44:00;;;;;;;24.00;13.98;;;;;;;;;;5849774;28;20045;-72
2024/03/21 07:46:50;;;;;;;27.90;14.45;;;;;;;;;;5865665;28;20095;-72
2024/03/21 07:49:40;;;;;;;19.65;11.43;;;;;;;;;;5865195;28;20049;-71
2024/03/21 07:52:30;;;;;;;23.02;12.48;;;;;;;;;;5865075;28;20049;-71
2024/03/21 07:55:20;;;;;;;22.02;11.35;;;;;;;;;;5865069;28;20053;-71
2024/03/21 07:58:12;;;;;;;20.40;14.05;;;;;;;;;;5864912;28;20049;-72
2024/03/21 08:01:02;;;;;;;26.05;14.52;;;;;;;;;;5848789;28;20511;-72
2024/03/21 08:03:53;;;;;;;19.30;12.90;;;;;;;;;;5848846;28;20521;-71
2024/03/21 08:06:42;;;;;;;21.95;14.48;;;;;;;;;;5848187;28;20503;-71
2024/03/21 08:09:32;;;;;;;25.52;15.95;;;;;;;;;;5848430;28;20458;-71
2024/03/21 08:12:22;;;;;;;25.50;14.93;;;;;;;;;;5864760;28;20107;-71
2024/03/21 08:15:12;;;;;;;27.02;15.10;;;;;;;;;;5848292;28;20049;-71
2024/03/21 08:18:03;;;;;;;27.52;14.38;;;;;;;;;;5864748;28;20056;-72
2024/03/21 08:20:53;;;;;;;24.50;13.18;;;;;;;;;;5865180;28;20045;-71
2024/03/21 08:23:43;;;;;;;19.33;12.63;;;;;;;;;;5864350;28;20506;-71
2024/03/21 08:26:32;;;;;;;30.65;12.27;;;;;;;;;;5848177;28;20049;-71
2024/03/21 08:29:22;;;;;;;21.05;11.95;;;;;;;;;;5847756;28;20147;-72
2024/03/21 08:32:13;;;;;;;28.58;15.27;;;;;;;;;;5847936;28;20412;-71
2024/03/21 08:35:04;;;;;;;26.55;13.85;;;;;;;;;;5847783;28;20060;-72
2024/03/21 08:37:54;;;;;;;18.67;13.20;;;;;;;;;;5864841;28;20372;-71
2024/03/21 08:40:51;;;;;;;27.25;14.27;;;;;;;;;;5847715;28;20124;-71
2024/03/21 08:43:41;;;;;;;26.48;15.27;;;;;;;;;;5847783;28;20514;-71
2024/03/21 08:46:31;;;;;;;26.38;13.18;;;;;;;;;;5847551;28;20041;-71
2024/03/21 08:49:20;;;;;;;22.65;12.48;;;;;;;;;;5847768;28;20124;-71
2024/03/21 08:52:10;;;;;;;24.88;12.07;;;;;;;;;;5846447;28;20041;-72
2024/03/21 08:55:00;;;;;;;20.75;12.30;;;;;;;;;;5847897;28;20057;-71
2024/03/21 08:57:51;;;;;;;30.10;15.02;;;;;;;;;;5832660;28;20046;-71
2024/03/21 09:00:41;;;;;;;32.17;15.55;;;;;;;;;;5846000;28;20041;-71
2024/03/21 09:03:31;;;;;;;24.20;11.32;;;;;;;;;;5847332;28;20050;-71
2024/03/21 09:06:21;;;;;;;28.13;17.17;;;;;;;;;;5847376;28;20058;-72
2024/03/21 09:09:11;;;;;;;27.75;12.52;;;;;;;;;;5847361;28;20458;-72
2024/03/21 09:12:03;;;;;;;29.48;12.13;;;;;;;;;;5863744;28;20458;-72
2024/03/21 09:14:52;;;;;;;28.25;11.40;;;;;;;;;;5864273;28;20056;-71
2024/03/21 09:17:42;;;;;;;23.63;12.57;;;;;;;;;;5863798;28;20041;-71
2024/03/21 09:20:33;;;;;;;19.75;9.90;;;;;;;;;;5847331;28;20385;-72
2024/03/21 09:23:24;;;;;;;21.73;11.80;;;;;;;;;;5863134;28;20046;-71
2024/03/21 09:26:13;;;;;;;25.83;10.52;;;;;;;;;;5830915;28;20050;-71
2024/03/21 09:29:03;;;;;;;28.63;12.88;;;;;;;;;;5863351;28;20115;-72
2024/03/21 09:31:53;;;;;;;31.00;13.07;;;;;;;;;;5863743;28;20061;-71
2024/03/21 09:34:49;;;;;;;24.67;12.95;;;;;;;;;;5847212;28;20111;-71
2024/03/21 09:37:39;;;;;;;16.20;10.18;;;;;;;;;;5846887;28;20515;-71
2024/03/21 09:40:29;;;;;;;18.38;9.98;;;;;;;;;;5846505;28;20399;-71
2024/03/21 09:43:18;;;;;;;21.45;10.05;;;;;;;;;;5863090;28;20045;-72
2024/03/21 09:46:17;;;;;;;21.20;9.88;;;;;;;;;;5879365;28;20050;-71
2024/03/21 09:49:11;;;;;;;15.57;8.55;;;;;;;;;;5862758;28;20042;-71
2024/03/21 09:52:01;;;;;;;30.15;8.93;;;;;;;;;;5846619;28;20045;-73
2024/03/21 09:54:51;;;;;;;12.18;7.50;;;;;;;;;;5863095;28;20049;-71
2024/03/21 09:57:41;;;;;;;13.65;7.57;;;;;;;;;;5862652;28;20424;-71
2024/03/21 10:00:31;;;;;;;12.50;8.90;;;;;;;;;;5862749;28;20484;-72
2024/03/21 10:03:22;;;;;;;20.80;11.35;;;;;;;;;;5861943;28;20049;-72
2024/03/21 10:06:12;;;;;;;14.93;9.30;;;;;;;;;;5846316;28;20091;-71
2024/03/21 10:09:03;;;;;;;15.20;8.55;;;;;;;;;;5862282;28;20499;-72
2024/03/21 10:11:52;;;;;;;18.90;8.63;;;;;;;;;;5846411;28;20045;-71
2024/03/21 10:14:42;;;;;;;29.15;13.18;;;;;;;;;;5845796;28;20041;-71
2024/03/21 10:17:32;;;;;;;25.67;11.35;;;;;;;;;;5829957;28;20052;-71
2024/03/21 10:20:22;;;;;;;20.50;8.45;;;;;;;;;;5845731;28;20045;-72
2024/03/21 10:23:15;;;;;;;17.15;8.82;;;;;;;;;;5861931;28;20095;-72
2024/03/21 10:26:15;;;;;;;17.20;8.32;;;;;;;;;;5846468;28;20061;-72
2024/03/21 10:29:10;;;;;;;13.50;7.85;;;;;;;;;;5829504;28;20049;-72
2024/03/21 10:32:00;;;;;;;16.27;8.18;;;;;;;;;;5845936;28;20041;-71
2024/03/21 10:34:54;;;;;;;16.35;10.13;;;;;;;;;;5845729;28;20047;-71
2024/03/21 10:37:44;;;;;;;14.30;8.32;;;;;;;;;;5861565;28;20049;-71
2024/03/21 10:40:34;;;;;;;15.98;8.95;;;;;;;;;;5861893;28;20037;-71
2024/03/21 10:43:26;;;;;;;20.40;7.75;;;;;;;;;;5861609;28;20048;-71
2024/03/21 10:46:17;;;;;;;10.20;6.38;;;;;;;;;;5861711;28;20604;-71
2024/03/21 10:49:13;;;;;;;14.95;8.30;;;;;;;;;;5845121;28;20050;-71
2024/03/21 10:52:05;;;;;;;14.27;6.55;;;;;;;;;;5861617;28;20139;-72
2024/03/21 10:54:57;;;;;;;11.80;7.30;;;;;;;;;;5861861;28;20045;-72
2024/03/21 10:57:59;;;;;;;14.68;6.95;;;;;;;;;;5861331;28;20045;-72
2024/03/21 11:00:55;;;;;;;17.90;7.65;;;;;;;;;;5861501;28;20045;-72
2024/03/21 11:03:50;;;;;;;21.02;7.25;;;;;;;;;;5844651;28;20594;-72
2024/03/21 11:06:42;;;;;;;10.07;6.15;;;;;;;;;;5861287;28;20042;-71
2024/03/21 11:09:33;;;;;;;14.38;6.47;;;;;;;;;;5861684;28;20048;-71
2024/03/21 11:12:23;;;;;;;6.93;4.63;;;;;;;;;;5861655;28;20043;-71
2024/03/21 11:15:13;;;;;;;16.70;7.22;;;;;;;;;;5860618;28;20540;-72
2024/03/21 11:18:06;;;;;;;11.05;6.55;;;;;;;;;;5829136;28;20056;-72
2024/03/21 11:20:56;;;;;;;11.70;5.63;;;;;;;;;;5861741;28;20492;-72
2024/03/21 11:23:46;;;;;;;7.70;5.45;;;;;;;;;;5844561;28;20049;-72
2024/03/21 11:26:35;;;;;;;10.70;5.88;;;;;;;;;;5861088;28;20068;-72
2024/03/21 11:29:25;;;;;;;10.40;6.03;;;;;;;;;;5860954;28;20823;-71
2024/03/21 11:32:25;;;;;;;10.18;4.78;;;;;;;;;;5860963;28;20054;-72
2024/03/21 11:35:15;;;;;;;10.77;5.43;;;;;;;;;;5860907;28;20128;-72
2024/03/21 11:38:07;;;;;;;9.07;5.38;;;;;;;;;;5860969;28;20045;-71
2024/03/21 11:40:58;;;;;;;12.25;5.78;;;;;;;;;;5861758;28;20054;-71
2024/03/21 11:43:53;;;;;;;15.02;5.60;;;;;;;;;;5860794;28;20526;-71
2024/03/21 11:46:43;;;;;;;23.05;5.22;;;;;;;;;;5860988;28;20049;-72
2024/03/21 11:49:33;;;;;;;9.82;4.88;;;;;;;;;;5860955;28;20046;-72
2024/03/21 11:52:23;;;;;;;17.27;6.25;;;;;;;;;;5860805;28;20045;-72
2024/03/21 11:55:13;;;;;;;9.18;5.65;;;;;;;;;;5860632;28;20076;-72
2024/03/21 11:58:03;;;;;;;9.25;4.60;;;;;;;;;;5860918;28;20741;-72
2024/03/21 12:00:53;;;;;;;13.73;5.68;;;;;;;;;;5861048;28;20128;-72
2024/03/21 12:03:43;;;;;;;9.50;5.57;;;;;;;;;;5860658;28;20076;-71
2024/03/21 12:06:33;;;;;;;8.25;5.35;;;;;;;;;;5861145;28;20065;-71
2024/03/21 12:09:23;;;;;;;6.57;4.72;;;;;;;;;;5860542;28;20103;-72
2024/03/21 12:12:15;;;;;;;12.63;5.75;;;;;;;;;;5844325;28;20049;-72
2024/03/21 12:15:07;;;;;;;15.40;4.57;;;;;;;;;;5860583;28;20046;-72
2024/03/21 12:17:57;;;;;;;9.38;4.93;;;;;;;;;;5861416;28;20057;-72
2024/03/21 12:20:47;;;;;;;11.75;5.40;;;;;;;;;;5844285;28;20144;-72
2024/03/21 12:23:37;;;;;;;11.60;6.30;;;;;;;;;;5860428;28;20407;-72
2024/03/21 12:26:27;;;;;;;8.48;4.47;;;;;;;;;;5854117;28;20049;-72
2024/03/21 12:29:16;;;;;;;14.52;5.55;;;;;;;;;;5864329;28;20046;-72
2024/03/21 12:32:10;;;;;;;16.02;4.60;;;;;;;;;;5864981;28;20050;-72
2024/03/21 12:34:59;;;;;;;7.35;4.82;;;;;;;;;;5865719;28;20050;-72
2024/03/21 12:37:51;;;;;;;8.23;5.07;;;;;;;;;;5864437;28;20049;-71
2024/03/21 12:40:42;;;;;;;11.77;5.32;;;;;;;;;;5864230;28;20153;-71
2024/03/21 12:43:32;;;;;;;10.38;4.55;;;;;;;;;;5847732;28;20519;-72
2024/03/21 12:46:22;;;;;;;7.97;4.40;;;;;;;;;;5847733;28;20214;-72
2024/03/21 12:49:12;;;;;;;5.88;3.17;;;;;;;;;;5864145;28;20049;-72
2024/03/21 12:52:02;;;;;;;10.65;4.55;;;;;;;;;;5864329;28;20415;-72
2024/03/21 12:54:52;;;;;;;7.30;3.97;;;;;;;;;;5880897;28;20064;-72
2024/03/21 12:57:41;;;;;;;12.82;5.88;;;;;;;;;;5846965;28;20049;-72
2024/03/21 13:00:31;;;;;;;9.63;4.15;;;;;;;;;;5863768;28;20065;-72
2024/03/21 13:03:21;;;;;;;7.57;4.68;;;;;;;;;;5863998;28;20504;-72
2024/03/21 13:06:11;;;;;;;9.00;4.68;;;;;;;;;;5863734;28;20049;-72
2024/03/21 13:09:00;;;;;;;6.65;3.90;;;;;;;;;;5863711;28;20081;-73
2024/03/21 13:11:51;;;;;;;4.80;2.95;;;;;;;;;;5861311;28;20061;-71
2024/03/21 13:14:42;;;;;;;9.00;3.35;;;;;;;;;;5832127;28;20458;-72
2024/03/21 13:17:31;;;;;;;6.70;3.70;;;;;;;;;;5847609;28;20048;-72
2024/03/21 13:20:22;;;;;;;8.23;3.50;;;;;;;;;;5846547;28;20053;-72
2024/03/21 13:23:12;;;;;;;6.45;4.18;;;;;;;;;;5861655;28;20047;-72
2024/03/21 13:26:02;;;;;;;7.03;3.92;;;;;;;;;;5875577;28;20415;-72
2024/03/21 13:28:52;;;;;;;6.70;3.75;;;;;;;;;;5847869;28;20049;-72
2024/03/21 13:31:41;;;;;;;8.48;4.47;;;;;;;;;;5846783;28;20064;-72
2024/03/21 13:34:32;;;;;;;12.73;3.85;;;;;;;;;;5826711;28;20053;-72
2024/03/21 13:37:22;;;;;;;13.68;4.40;;;;;;;;;;5823849;28;20160;-72
2024/03/21 13:40:12;;;;;;;8.52;3.83;;;;;;;;;;5838550;28;20112;-72
2024/03/21 13:43:02;;;;;;;9.20;5.25;;;;;;;;;;5823969;28;20054;-72
2024/03/21 13:45:56;;;;;;;7.78;4.47;;;;;;;;;;5840886;28;20108;-72
2024/03/21 13:48:46;;;;;;;9.48;3.88;;;;;;;;;;5840329;28;20049;-72
2024/03/21 13:51:36;;;;;;;12.50;3.83;;;;;;;;;;5823461;28;20057;-71
2024/03/21 13:54:26;;;;;;;8.02;3.20;;;;;;;;;;5823208;28;20053;-71
2024/03/21 13:57:16;;;;;;;10.02;3.85;;;;;;;;;;5823328;28;20046;-72
2024/03/21 14:00:10;;;;;;;5.70;4.07;;;;;;;;;;5840107;28;20050;-72
2024/03/21 14:03:00;;;;;;;5.95;3.42;;;;;;;;;;5824730;28;20100;-72
2024/03/21 14:05:51;;;;;;;16.60;7.32;;;;;;;;;;5855544;28;20496;-71
2024/03/21 14:08:41;;;;;;;9.30;4.10;;;;;;;;;;5836354;28;20045;-72
2024/03/21 14:11:31;;;;;;;10.32;5.35;;;;;;;;;;5862289;28;20041;-72
2024/03/21 14:14:21;;;;;;;4.97;3.17;;;;;;;;;;5862786;28;20053;-72
2024/03/21 14:17:11;;;;;;;8.52;3.65;;;;;;;;;;5846032;28;20110;-72
2024/03/21 14:20:07;;;;;;;8.63;4.32;;;;;;;;;;5829699;28;20049;-72
2024/03/21 14:22:57;;;;;;;9.98;4.55;;;;;;;;;;5838746;28;20404;-72
2024/03/21 14:25:47;;;;;;;9.25;4.47;;;;;;;;;;5805767;28;20068;-72
2024/03/21 14:28:38;;;;;;;7.28;4.20;;;;;;;;;;5838357;28;20049;-72
2024/03/21 14:31:30;;;;;;;6.43;4.10;;;;;;;;;;5806651;28;20049;-72
2024/03/21 14:34:22;;;;;;;19.48;10.40;;;;;;;;;;5823212;28;20050;-72
2024/03/21 14:37:11;;;;;;;8.48;4.53;;;;;;;;;;5815035;28;20416;-71
2024/03/21 14:40:02;;;;;;;18.30;9.38;;;;;;;;;;5838840;28;20053;-72
2024/03/21 14:42:52;;;;;;;25.88;10.30;;;;;;;;;;5839180;28;20050;-71
2024/03/21 14:45:41;;;;;;;13.07;4.30;;;;;;;;;;5838569;28;20064;-72
2024/03/21 14:48:31;;;;;;;12.60;6.18;;;;;;;;;;5822065;28;20042;-72
2024/03/21 14:51:21;;;;;;;10.93;4.60;;;;;;;;;;5838550;28;20046;-72
2024/03/21 14:54:11;;;;;;;9.05;4.82;;;;;;;;;;5822238;28;20046;-72
2024/03/21 14:57:01;;;;;;;9.77;4.80;;;;;;;;;;5838358;28;20050;-72
2024/03/21 14:59:51;;;;;;;11.35;4.75;;;;;;;;;;5822602;28;20096;-72
2024/03/21 15:02:41;;;;;;;11.07;5.05;;;;;;;;;;5822109;28;20049;-72
2024/03/21 15:05:33;;;;;;;9.18;4.40;;;;;;;;;;5838079;28;20042;-72
2024/03/21 15:08:23;;;;;;;22.45;11.50;;;;;;;;;;5822278;28;20149;-72
2024/03/21 15:11:13;;;;;;;19.88;7.90;;;;;;;;;;5838611;28;20156;-72
2024/03/21 15:14:03;;;;;;;11.07;5.70;;;;;;;;;;5821948;28;20081;-72
2024/03/21 15:16:53;;;;;;;15.25;8.48;;;;;;;;;;5806073;28;20046;-71
2024/03/21 15:19:43;;;;;;;13.35;5.43;;;;;;;;;;5838019;28;20041;-72
2024/03/21 15:22:32;;;;;;;8.20;4.78;;;;;;;;;;5821802;28;20134;-71
2024/03/21 15:25:23;;;;;;;17.10;6.80;;;;;;;;;;5821673;28;20140;-71
2024/03/21 15:28:15;;;;;;;10.05;4.80;;;;;;;;;;5838006;28;20042;-71
2024/03/21 15:31:05;;;;;;;54.58;5.35;;;;;;;;;;5822274;28;20406;-72
2024/03/21 15:33:55;;;;;;;9.63;4.43;;;;;;;;;;5822173;28;20089;-71
2024/03/21 15:36:45;;;;;;;9.13;4.47;;;;;;;;;;5838018;28;20503;-71
2024/03/21 15:39:35;;;;;;;10.95;4.55;;;;;;;;;;5837862;28;20042;-71
2024/03/21 15:42:24;;;;;;;10.50;5.38;;;;;;;;;;5837828;28;20046;-71
2024/03/21 15:45:14;;;;;;;9.15;4.93;;;;;;;;;;5821570;28;20071;-71
2024/03/21 15:48:04;;;;;;;9.73;3.95;;;;;;;;;;5821733;28;20125;-72
2024/03/21 15:50:54;;;;;;;7.45;4.28;;;;;;;;;;5838211;28;20050;-71
2024/03/21 15:53:45;;;;;;;8.05;4.45;;;;;;;;;;5854168;28;20042;-71
2024/03/21 15:56:35;;;;;;;4.78;3.35;;;;;;;;;;5821570;28;20050;-71
2024/03/21 15:59:24;;;;;;;11.35;5.55;;;;;;;;;;5821617;28;20058;-71
2024/03/21 16:02:14;;;;;;;14.18;5.78;;;;;;;;;;5839399;28;20111;-72
2024/03/21 16:05:05;;;;;;;19.88;5.63;;;;;;;;;;5825893;28;20057;-72
2024/03/21 16:07:55;;;;;;;12.55;3.58;;;;;;;;;;5842363;28;20045;-71
2024/03/21 16:10:44;;;;;;;16.83;4.70;;;;;;;;;;5841911;28;20073;-71
2024/03/21 16:13:34;;;;;;;7.22;3.95;;;;;;;;;;5842173;28;20038;-71
2024/03/21 16:16:24;;;;;;;18.13;9.98;;;;;;;;;;5841709;28;20037;-71
2024/03/21 16:19:18;;;;;;;8.65;5.03;;;;;;;;;;5825554;28;20053;-71
2024/03/21 16:22:09;;;;;;;10.07;7.03;;;;;;;;;;5841835;28;20045;-72
2024/03/21 16:25:00;;;;;;;24.17;9.30;;;;;;;;;;5826378;28;20054;-71
2024/03/21 16:27:49;;;;;;;20.63;8.93;;;;;;;;;;5840651;28;20129;-71
2024/03/21 16:30:39;;;;;;;19.42;9.50;;;;;;;;;;5881730;28;20049;-71
2024/03/21 16:33:31;;;;;;;26.00;11.15;;;;;;;;;;5881161;28;20120;-71
2024/03/21 16:36:21;;;;;;;24.35;11.63;;;;;;;;;;5848217;28;20052;-72
2024/03/21 16:39:14;;;;;;;18.20;9.98;;;;;;;;;;5847785;28;20045;-71
2024/03/21 16:42:04;;;;;;;16.67;12.02;;;;;;;;;;5864357;28;20049;-72
2024/03/21 16:44:54;;;;;;;17.15;10.68;;;;;;;;;;5864500;28;20052;-71
2024/03/21 16:47:43;;;;;;;25.48;13.95;;;;;;;;;;5847568;28;20042;-71